Richfield, Minnesota
Current Conditions -  °F | °C
As of 2:53 AM on Sunday 21 Dec 2014 (Local Time) from KMSP Reporting Station
Haze Haze  
Wind Chill: 23°   Ceiling: 900
Heat Index: 31°   Visibility: 5mi
Dew Point: 28°   Wind: 9mph
Humidity: 89%   Direction: 140°SE
Pressure: 30.02"   Gusts: NA
Location:  44.88°N, 93.27°W
Report Text: KMSP 210853Z 14008KT 5SM BR OVC009 M01/M02 A3002 RMK AO2 SLP176 T10061022 58017
Loading
Personal Weather Stations






























Interactive Weather Map New forecast layout! Learn more

10-Day Weather Forecast

Advertisements
Track Severe Weather on mobile